La Conner, Washington
Current Conditions -  °F | °C
As of 5:56 PM on Saturday 25 Oct 2014 (Local Time) from KNUW Reporting Station
Light Rain Light Rain  
Wind Chill: 58°   Ceiling: 4100
Heat Index: 58°   Visibility: 10mi
Dew Point: 52°   Wind: 20mph
Humidity: 81%   Direction: 110°ESE
Pressure: 29.22"   Gusts: 29mph
Location:  48.39°N, 122.5°W
Report Text: KNUW 260056Z 11017G25KT 10SM -RA FEW022 BKN041 OVC060 14/11 A2922 RMK AO2 PK WND 08028/0027 SLP898 P0001 T01440111 $
Loading
Personal Weather Stations






























Interactive Weather Map
Tropical Storm Tracking
New forecast layout! Learn more

10-Day Weather Forecast

Advertisements
Track Severe Weather on mobile